Time;durP1;ratioP1;P1;durP2;ratioP2;P2;SDS_P1;SDS_P2;PMS_P1;PMS_P2;Temp;Humidity;BMP_temperature;BMP_pressure;BME280_temperature;BME280_humidity;BME280_pressure;Samples;Min_cycle;Max_cycle;Signal;HPM_P1;HPM_P2
2023/06/16 00:01:05;;;;;;;22.90;11.63;;;512.20;2380.80;;;;;;4890327;29;20381;-70
2023/06/16 00:03:34;;;;;;;21.30;11.93;;;512.30;2380.80;;;;;;4891045;29;20048;-70
2023/06/16 00:06:15;;;;;;;18.15;11.15;;;512.50;2380.80;;;;;;4888073;29;20021;-71
2023/06/16 00:08:44;;;;;;;14.98;10.50;;;512.30;1996.80;;;;;;4894415;29;20467;-70
2023/06/16 00:14:25;;;;;;;15.38;10.15;;;512.30;2380.80;;;;;;5039944;24;20345;-79
2023/06/16 00:16:52;;;;;;;20.65;11.48;;;512.10;2278.40;;;;;;4862759;29;20053;-73
2023/06/16 00:19:18;;;;;;;18.42;11.63;;;512.20;2380.80;;;;;;4869969;29;20383;-76
2023/06/16 00:21:45;;;;;;;18.52;10.88;;;512.20;2380.80;;;;;;4881164;29;20028;-78
2023/06/16 00:24:12;;;;;;;15.40;11.18;;;512.30;2380.80;;;;;;4876716;29;20049;-70
2023/06/16 00:26:38;;;;;;;25.42;11.00;;;512.30;2227.20;;;;;;4871640;29;20035;-77
2023/06/16 00:29:05;;;;;;;19.58;10.95;;;512.30;2380.80;;;;;;4869790;29;20441;-76
2023/06/16 00:31:31;;;;;;;20.42;10.77;;;512.20;2380.80;;;;;;4872134;29;20028;-74
2023/06/16 00:33:58;;;;;;;17.05;10.85;;;512.20;2380.80;;;;;;4869802;29;20112;-70
2023/06/16 00:36:23;;;;;;;16.02;11.10;;;512.20;2380.80;;;;;;4864671;29;20133;-70
2023/06/16 00:38:49;;;;;;;19.45;11.68;;;512.30;2380.80;;;;;;4872503;29;20120;-70
2023/06/16 00:41:15;;;;;;;17.25;12.05;;;512.30;2380.80;;;;;;4869660;29;20500;-70
2023/06/16 00:43:40;;;;;;;16.13;9.98;;;512.20;2380.80;;;;;;4873261;29;20072;-79
2023/06/16 00:46:09;;;;;;;19.13;11.63;;;512.10;2380.80;;;;;;4878770;29;20045;-70
2023/06/16 00:48:35;;;;;;;22.15;12.40;;;512.10;2380.80;;;;;;4872996;29;20033;-70
2023/06/16 00:51:02;;;;;;;23.58;12.48;;;512.10;2380.80;;;;;;4854490;29;20034;-70
2023/06/16 00:53:30;;;;;;;23.52;11.93;;;512.00;2380.80;;;;;;4870498;29;20037;-73
2023/06/16 00:55:57;;;;;;;19.08;12.23;;;487.30;2380.80;;;;;;4871386;29;20034;-70
2023/06/16 00:58:23;;;;;;;24.48;12.38;;;512.00;2380.80;;;;;;4873797;29;20033;-69
2023/06/16 01:00:49;;;;;;;20.15;12.82;;;487.30;2380.80;;;;;;4869270;29;20029;-69
2023/06/16 01:03:16;;;;;;;27.98;15.02;;;487.30;2380.80;;;;;;4872149;29;20033;-80
2023/06/16 01:05:42;;;;;;;22.08;13.57;;;487.30;2380.80;;;;;;4878874;29;20018;-73
2023/06/16 01:08:29;;;;;;;23.90;15.38;;;512.00;2380.80;;;;;;4868101;29;20066;-72
2023/06/16 01:10:55;;;;;;;24.35;14.77;;;487.30;2380.80;;;;;;4870357;29;20392;-79
2023/06/16 01:13:59;;;;;;;28.40;16.00;;;487.30;2380.80;;;;;;4872549;29;20025;-72
2023/06/16 01:16:30;;;;;;;21.60;15.20;;;512.10;2380.80;;;;;;4869178;29;20057;-72
2023/06/16 01:18:58;;;;;;;29.83;15.38;;;512.10;2380.80;;;;;;4868818;29;20037;-72
2023/06/16 01:21:50;;;;;;;27.92;16.08;;;512.20;2380.80;;;;;;4862851;29;20057;-72
2023/06/16 01:24:18;;;;;;;22.17;15.88;;;512.20;2380.80;;;;;;4872187;29;20044;-76
2023/06/16 01:26:49;;;;;;;28.08;15.05;;;512.30;2380.80;;;;;;4867772;29;20116;-80
2023/06/16 01:29:17;;;;;;;23.02;14.85;;;512.40;2380.80;;;;;;4871172;29;20028;-71
2023/06/16 01:31:44;;;;;;;28.38;16.67;;;512.50;2380.80;;;;;;4873102;29;20033;-82
2023/06/16 01:34:12;;;;;;;22.45;15.43;;;512.30;2380.80;;;;;;4869843;29;20026;-73
2023/06/16 01:36:40;;;;;;;21.98;14.70;;;512.30;2380.80;;;;;;4875755;29;20025;-80
2023/06/16 01:39:08;;;;;;;22.23;13.35;;;512.20;2380.80;;;;;;4863821;29;20034;-75
2023/06/16 01:41:36;;;;;;;22.95;14.93;;;512.10;2380.80;;;;;;4868405;29;20169;-70
2023/06/16 01:44:03;;;;;;;20.60;15.80;;;512.20;2380.80;;;;;;4871844;29;20037;-74
2023/06/16 01:46:30;;;;;;;26.13;15.43;;;512.20;2380.80;;;;;;4877973;29;20538;-79
2023/06/16 01:48:56;;;;;;;23.48;15.07;;;512.30;2380.80;;;;;;4867842;29;20035;-72
2023/06/16 01:51:22;;;;;;;27.95;16.40;;;512.30;2380.80;;;;;;4867642;29;20112;-79
2023/06/16 01:53:49;;;;;;;26.88;17.02;;;512.30;2380.80;;;;;;4872359;29;20056;-75
2023/06/16 01:56:15;;;;;;;26.95;15.98;;;512.30;2380.80;;;;;;4871462;29;20029;-75
2023/06/16 01:58:41;;;;;;;27.70;18.02;;;512.20;2380.80;;;;;;4867698;29;20399;-82
2023/06/16 02:01:31;;;;;;;29.55;20.02;;;512.20;2380.80;;;;;;4871550;29;20081;-73
2023/06/16 02:04:13;;;;;;;29.75;18.10;;;512.20;2380.80;;;;;;4872856;29;20068;-71
2023/06/16 02:06:39;;;;;;;27.52;16.33;;;512.20;2380.80;;;;;;4862405;29;20440;-81
2023/06/16 02:09:05;;;;;;;23.35;15.77;;;512.20;2380.80;;;;;;4871688;29;20029;-75
2023/06/16 02:11:33;;;;;;;25.58;16.40;;;512.20;2380.80;;;;;;4861511;29;20061;-81
2023/06/16 02:13:59;;;;;;;23.02;14.98;;;512.20;2380.80;;;;;;4870626;29;20056;-73
2023/06/16 02:16:25;;;;;;;22.80;15.48;;;512.20;2380.80;;;;;;4854617;29;20484;-72
2023/06/16 02:18:53;;;;;;;22.25;14.75;;;512.30;2380.80;;;;;;4850761;29;20038;-73
2023/06/16 02:21:20;;;;;;;34.28;17.25;;;512.30;2380.80;;;;;;4852842;29;20038;-72
2023/06/16 02:23:45;;;;;;;24.08;14.95;;;512.30;2380.80;;;;;;4884120;29;20029;-73
2023/06/16 02:26:11;;;;;;;20.90;15.23;;;512.40;2380.80;;;;;;4860199;29;20132;-75
2023/06/16 02:28:37;;;;;;;25.73;15.98;;;512.40;2380.80;;;;;;4870176;29;20026;-81
2023/06/16 02:31:02;;;;;;;24.30;16.02;;;512.40;2380.80;;;;;;4871115;29;20037;-72
2023/06/16 02:33:28;;;;;;;27.80;15.13;;;512.20;2380.80;;;;;;4867641;29;20029;-72
2023/06/16 02:35:54;;;;;;;22.13;15.70;;;512.10;2380.80;;;;;;4870953;29;20026;-76
2023/06/16 02:38:20;;;;;;;25.13;16.27;;;487.30;2380.80;;;;;;4863048;29;20197;-73
2023/06/16 02:40:46;;;;;;;21.42;15.50;;;487.30;2380.80;;;;;;4868726;29;20037;-74
2023/06/16 02:43:12;;;;;;;23.60;13.65;;;487.30;2380.80;;;;;;4871280;29;20044;-82
2023/06/16 02:45:39;;;;;;;23.73;15.45;;;487.30;2380.80;;;;;;4875018;29;20472;-82
2023/06/16 02:48:05;;;;;;;19.58;13.35;;;487.10;2380.80;;;;;;4865585;29;20086;-72
2023/06/16 02:50:31;;;;;;;18.17;14.48;;;487.10;2380.80;;;;;;4860843;29;20057;-81
2023/06/16 02:52:58;;;;;;;24.98;14.25;;;487.10;2380.80;;;;;;4869834;29;20032;-77
2023/06/16 02:55:24;;;;;;;19.77;13.70;;;487.10;2380.80;;;;;;4852327;29;20092;-72
2023/06/16 02:57:50;;;;;;;23.88;13.65;;;487.10;2380.80;;;;;;4865094;29;20044;-72
2023/06/16 03:00:16;;;;;;;18.85;13.50;;;486.90;2380.80;;;;;;4866607;29;20029;-70
2023/06/16 03:02:42;;;;;;;18.38;13.68;;;486.90;2380.80;;;;;;4868364;29;20506;-81
2023/06/16 03:05:08;;;;;;;18.77;13.68;;;486.90;2380.80;;;;;;4865741;29;20033;-80
2023/06/16 03:07:34;;;;;;;22.17;12.80;;;486.90;2380.80;;;;;;4870633;29;20503;-80
2023/06/16 03:10:01;;;;;;;20.52;12.32;;;486.80;2380.80;;;;;;4853361;29;20029;-72
2023/06/16 03:12:26;;;;;;;18.25;11.55;;;486.90;2380.80;;;;;;4865030;29;20037;-70
2023/06/16 03:14:52;;;;;;;19.38;13.02;;;486.80;2380.80;;;;;;4866716;29;20077;-79
2023/06/16 03:17:20;;;;;;;19.98;12.43;;;486.90;2380.80;;;;;;4870365;29;20069;-73
2023/06/16 03:19:49;;;;;;;16.83;11.52;;;486.70;2380.80;;;;;;4855642;29;20037;-73
2023/06/16 03:22:15;;;;;;;16.83;11.70;;;486.70;2380.80;;;;;;4861093;29;20093;-70
2023/06/16 03:24:43;;;;;;;26.40;12.25;;;486.70;2380.80;;;;;;4870163;29;20037;-71
2023/06/16 03:27:09;;;;;;;21.27;13.07;;;486.70;2380.80;;;;;;4870890;29;20029;-71
2023/06/16 03:29:36;;;;;;;16.70;11.88;;;486.60;2380.80;;;;;;4868769;29;20053;-74
2023/06/16 03:32:06;;;;;;;20.00;12.85;;;486.70;2380.80;;;;;;4869992;29;20044;-77
2023/06/16 03:34:31;;;;;;;18.48;11.85;;;486.60;2380.80;;;;;;4866513;29;20040;-70
2023/06/16 03:36:58;;;;;;;17.52;11.90;;;486.60;2380.80;;;;;;4864746;29;20037;-73
2023/06/16 03:39:24;;;;;;;19.95;12.00;;;486.40;2380.80;;;;;;4867298;29;20029;-71
2023/06/16 03:41:50;;;;;;;15.85;11.75;;;486.60;2380.80;;;;;;4868726;29;20025;-71
2023/06/16 03:44:16;;;;;;;15.85;11.00;;;486.60;2380.80;;;;;;4851625;29;20104;-73
2023/06/16 03:46:42;;;;;;;17.10;13.05;;;486.70;2380.80;;;;;;4875288;29;20029;-79
2023/06/16 03:49:07;;;;;;;16.05;11.20;;;486.60;2380.80;;;;;;4861298;29;20029;-71
2023/06/16 03:51:34;;;;;;;16.27;12.02;;;486.70;2380.80;;;;;;4868150;29;20423;-79
2023/06/16 03:54:00;;;;;;;20.17;12.02;;;486.60;2380.80;;;;;;4864016;29;20040;-70
2023/06/16 03:56:26;;;;;;;15.77;11.90;;;486.60;2380.80;;;;;;4867226;29;20480;-79
2023/06/16 03:58:52;;;;;;;19.40;12.18;;;486.60;2380.80;;;;;;4867081;29;20037;-75
2023/06/16 04:01:21;;;;;;;22.63;11.38;;;486.60;2380.80;;;;;;4873390;29;20028;-80
2023/06/16 04:03:47;;;;;;;17.67;12.40;;;486.60;2380.80;;;;;;4871585;29;20037;-82
2023/06/16 04:06:12;;;;;;;20.85;12.00;;;486.50;2380.80;;;;;;4872065;29;20547;-75
2023/06/16 04:08:38;;;;;;;18.13;11.77;;;486.60;2380.80;;;;;;4874251;29;20077;-73
2023/06/16 04:11:04;;;;;;;20.02;12.27;;;486.40;2380.80;;;;;;4861481;29;20025;-75
2023/06/16 04:13:30;;;;;;;18.42;11.77;;;486.40;2380.80;;;;;;4870623;29;20033;-73
2023/06/16 04:15:56;;;;;;;18.15;10.88;;;486.50;2380.80;;;;;;4870979;29;20064;-75
2023/06/16 04:18:22;;;;;;;18.65;12.63;;;486.40;2380.80;;;;;;4871692;29;20045;-72
2023/06/16 04:20:48;;;;;;;16.73;12.20;;;486.50;2380.80;;;;;;4863689;29;20037;-81
2023/06/16 04:23:14;;;;;;;20.50;13.13;;;486.50;2380.80;;;;;;4869904;29;20519;-82
2023/06/16 04:25:40;;;;;;;17.90;12.13;;;486.60;2380.80;;;;;;4869724;29;20041;-73
2023/06/16 04:28:07;;;;;;;23.52;14.05;;;486.50;2380.80;;;;;;4873805;29;20029;-72
2023/06/16 04:30:33;;;;;;;21.65;13.88;;;486.60;2380.80;;;;;;4875619;29;20057;-81
2023/06/16 04:33:01;;;;;;;24.77;12.68;;;486.40;2380.80;;;;;;4872833;29;20017;-72
2023/06/16 04:35:31;;;;;;;22.52;12.85;;;486.50;2380.80;;;;;;4853228;29;20075;-80
2023/06/16 04:38:07;;;;;;;29.73;14.45;;;486.50;2380.80;;;;;;4873796;29;20055;-77
2023/06/16 04:40:33;;;;;;;20.70;13.00;;;486.50;2380.80;;;;;;4873633;29;20085;-72
2023/06/16 04:42:58;;;;;;;19.15;13.88;;;486.50;2380.80;;;;;;4874391;29;20490;-81
2023/06/16 04:45:24;;;;;;;18.42;12.13;;;486.40;2380.80;;;;;;4876550;29;20044;-74
2023/06/16 04:47:51;;;;;;;16.38;11.95;;;486.40;2380.80;;;;;;4869432;29;20094;-72
2023/06/16 04:50:17;;;;;;;17.08;11.95;;;486.40;2380.80;;;;;;4878640;29;20021;-80
2023/06/16 04:52:43;;;;;;;19.58;11.88;;;486.50;2380.80;;;;;;4872429;29;20033;-72
2023/06/16 04:55:09;;;;;;;17.40;12.25;;;486.50;2380.80;;;;;;4866888;29;20085;-72
2023/06/16 04:57:35;;;;;;;18.27;11.77;;;486.40;2380.80;;;;;;4876486;29;20028;-73
2023/06/16 05:00:05;;;;;;;15.50;10.57;;;486.60;2380.80;;;;;;4868205;29;20026;-72
2023/06/16 05:02:30;;;;;;;17.13;10.93;;;486.70;2380.80;;;;;;4857032;29;20389;-77
2023/06/16 05:04:56;;;;;;;15.50;10.48;;;486.70;2380.80;;;;;;4870409;29;20154;-75
2023/06/16 05:07:22;;;;;;;15.55;10.27;;;486.60;2252.80;;;;;;4873307;29;20103;-73
2023/06/16 05:09:48;;;;;;;19.30;11.23;;;486.80;2304.00;;;;;;4875958;29;20048;-80
2023/06/16 05:12:13;;;;;;;19.70;11.10;;;486.70;2380.80;;;;;;4870735;29;20373;-72
2023/06/16 05:14:39;;;;;;;13.90;10.07;;;486.70;2380.80;;;;;;4866515;29;20057;-79
2023/06/16 05:17:05;;;;;;;15.40;10.60;;;486.50;2355.20;;;;;;4868455;29;20074;-77
2023/06/16 05:19:34;;;;;;;15.05;11.18;;;486.50;2380.80;;;;;;4864922;29;20056;-80
2023/06/16 05:22:00;;;;;;;15.07;10.85;;;486.60;2380.80;;;;;;4874732;29;20097;-72
2023/06/16 05:24:26;;;;;;;17.80;11.32;;;486.50;2380.80;;;;;;4875149;29;20025;-76
2023/06/16 05:26:51;;;;;;;14.63;10.88;;;486.50;2380.80;;;;;;4873852;29;20037;-72
2023/06/16 05:29:17;;;;;;;15.38;11.13;;;486.50;2380.80;;;;;;4869473;29;20072;-80
2023/06/16 05:31:43;;;;;;;15.73;10.30;;;486.50;2380.80;;;;;;4871068;29;20025;-74
2023/06/16 05:34:08;;;;;;;15.18;10.75;;;486.60;2380.80;;;;;;4867903;29;20037;-77
2023/06/16 05:36:35;;;;;;;16.45;11.15;;;486.80;2380.80;;;;;;4869826;29;20033;-71
2023/06/16 05:39:06;;;;;;;14.32;10.05;;;486.80;2176.00;;;;;;4848610;29;20034;-72
2023/06/16 05:41:33;;;;;;;14.05;9.80;;;486.90;2380.80;;;;;;4848039;29;20026;-72
2023/06/16 05:43:59;;;;;;;12.48;10.27;;;487.00;2380.80;;;;;;4845299;29;20061;-78
2023/06/16 05:46:25;;;;;;;16.45;9.88;;;487.10;2380.80;;;;;;4847682;29;20049;-73
2023/06/16 05:48:50;;;;;;;17.38;11.27;;;487.10;2380.80;;;;;;4848938;29;20025;-73
2023/06/16 05:51:16;;;;;;;16.13;10.45;;;487.10;2380.80;;;;;;4847892;29;20034;-72
2023/06/16 05:53:42;;;;;;;16.40;10.60;;;487.10;2380.80;;;;;;4847510;29;20018;-72
2023/06/16 05:56:07;;;;;;;14.88;9.50;;;487.10;2380.80;;;;;;4854232;29;20021;-72
2023/06/16 05:58:35;;;;;;;14.10;8.55;;;487.10;2380.80;;;;;;4849668;29;20080;-72
2023/06/16 06:01:09;;;;;;;13.88;10.50;;;487.20;2380.80;;;;;;4851864;29;20118;-71
2023/06/16 06:03:35;;;;;;;14.13;10.02;;;487.20;2380.80;;;;;;4845885;29;20033;-74
2023/06/16 06:06:01;;;;;;;15.40;9.60;;;487.10;2380.80;;;;;;4853086;29;20022;-75
2023/06/16 06:08:28;;;;;;;13.32;10.40;;;487.10;2380.80;;;;;;4855086;29;20049;-71
2023/06/16 06:10:54;;;;;;;15.10;10.15;;;487.10;2380.80;;;;;;4853895;29;20101;-73
2023/06/16 06:13:20;;;;;;;16.70;9.57;;;487.10;2380.80;;;;;;4849603;29;20026;-73
2023/06/16 06:15:46;;;;;;;16.40;10.45;;;487.10;2380.80;;;;;;4851012;29;20066;-72
2023/06/16 06:18:12;;;;;;;16.70;9.85;;;487.10;2380.80;;;;;;4852070;29;20049;-73
2023/06/16 06:20:39;;;;;;;16.25;10.35;;;487.10;2380.80;;;;;;4848922;29;20380;-75
2023/06/16 06:23:05;;;;;;;13.40;10.13;;;487.10;2380.80;;;;;;4852871;29;20064;-74
2023/06/16 06:25:30;;;;;;;13.30;9.68;;;487.00;2380.80;;;;;;4850035;29;20061;-74
2023/06/16 06:27:56;;;;;;;17.85;10.52;;;487.10;2380.80;;;;;;4851513;29;20041;-73
2023/06/16 06:30:22;;;;;;;15.27;10.40;;;487.00;2380.80;;;;;;4848213;29;20425;-74
2023/06/16 06:32:48;;;;;;;13.88;10.13;;;487.00;2380.80;;;;;;4852995;29;20435;-73
2023/06/16 06:35:13;;;;;;;15.27;10.57;;;487.00;2380.80;;;;;;4849737;29;20057;-74
2023/06/16 06:37:39;;;;;;;16.10;10.52;;;487.00;2380.80;;;;;;4851103;29;20069;-74
2023/06/16 06:40:06;;;;;;;16.88;11.82;;;486.90;2380.80;;;;;;4842555;29;20030;-73
2023/06/16 06:42:32;;;;;;;16.27;10.68;;;486.90;2380.80;;;;;;4853610;29;20030;-74
2023/06/16 06:44:57;;;;;;;16.67;12.02;;;486.90;2380.80;;;;;;4849619;29;20025;-73
2023/06/16 06:47:23;;;;;;;17.92;12.05;;;486.80;2380.80;;;;;;4852074;29;20489;-73
2023/06/16 06:49:52;;;;;;;16.33;12.07;;;486.80;1996.80;;;;;;4852812;29;20032;-72
2023/06/16 06:52:18;;;;;;;17.02;12.40;;;486.80;2380.80;;;;;;4852647;29;20511;-71
2023/06/16 06:54:43;;;;;;;18.15;12.55;;;486.80;2380.80;;;;;;4854538;29;20029;-71
2023/06/16 06:57:09;;;;;;;18.35;12.70;;;486.80;2380.80;;;;;;4847982;29;20045;-73
2023/06/16 06:59:35;;;;;;;21.92;13.52;;;486.90;2380.80;;;;;;4848958;29;20049;-73
2023/06/16 07:02:00;;;;;;;17.88;11.88;;;486.90;2380.80;;;;;;4849585;29;20109;-76
2023/06/16 07:04:27;;;;;;;18.02;12.48;;;486.80;2380.80;;;;;;4851903;29;20121;-72
2023/06/16 07:06:53;;;;;;;19.05;13.10;;;486.80;1996.80;;;;;;4846507;29;20042;-72
2023/06/16 07:09:18;;;;;;;19.63;12.73;;;486.80;2380.80;;;;;;4853698;29;20045;-75
2023/06/16 07:11:45;;;;;;;17.45;12.07;;;486.80;2380.80;;;;;;4846672;29;20029;-76
2023/06/16 07:14:12;;;;;;;18.77;12.05;;;486.80;2380.80;;;;;;4850088;29;20038;-73
2023/06/16 07:16:38;;;;;;;18.85;12.95;;;486.90;2380.80;;;;;;4845310;29;20026;-75
2023/06/16 07:19:03;;;;;;;21.55;12.98;;;486.90;2380.80;;;;;;4845508;29;20038;-75
2023/06/16 07:21:29;;;;;;;19.13;13.23;;;486.80;2380.80;;;;;;4853570;29;20121;-76
2023/06/16 07:23:55;;;;;;;17.55;12.55;;;486.80;2380.80;;;;;;4847868;29;20040;-75
2023/06/16 07:26:20;;;;;;;22.95;12.85;;;486.80;2380.80;;;;;;4851201;29;20045;-74
2023/06/16 07:28:46;;;;;;;23.60;11.85;;;487.00;2099.20;;;;;;4848215;29;20403;-76
2023/06/16 07:31:12;;;;;;;19.92;12.32;;;486.80;2380.80;;;;;;4851738;29;20503;-76
2023/06/16 07:33:37;;;;;;;17.25;11.45;;;486.90;2380.80;;;;;;4851847;29;20486;-76
2023/06/16 07:36:03;;;;;;;16.67;11.18;;;486.80;2380.80;;;;;;4844289;29;20022;-76
2023/06/16 07:38:29;;;;;;;18.23;13.63;;;486.80;2380.80;;;;;;4852543;29;20037;-75
2023/06/16 07:40:55;;;;;;;18.90;12.20;;;486.80;2380.80;;;;;;4854749;29;20413;-75
2023/06/16 07:43:21;;;;;;;20.25;13.48;;;486.90;2380.80;;;;;;4847421;29;20029;-75
2023/06/16 07:45:47;;;;;;;17.65;11.63;;;486.80;2380.80;;;;;;4850267;29;20038;-74
2023/06/16 07:48:13;;;;;;;17.92;12.98;;;486.80;2380.80;;;;;;4852170;29;20065;-74
2023/06/16 07:50:40;;;;;;;15.77;11.60;;;486.80;2227.20;;;;;;4854463;29;20503;-78
2023/06/16 07:53:06;;;;;;;28.20;14.23;;;486.80;2099.20;;;;;;4860343;29;20021;-74
2023/06/16 07:55:32;;;;;;;15.75;13.32;;;486.80;2380.80;;;;;;4849827;29;20041;-76
2023/06/16 07:57:57;;;;;;;25.17;13.05;;;486.80;2380.80;;;;;;4858140;29;20042;-77
2023/06/16 08:00:23;;;;;;;21.83;13.88;;;486.80;2380.80;;;;;;4853974;29;20021;-76
2023/06/16 08:02:50;;;;;;;18.98;13.93;;;486.90;2380.80;;;;;;4855293;29;20480;-75
2023/06/16 08:05:16;;;;;;;20.63;14.13;;;486.80;2380.80;;;;;;4847836;29;20029;-74
2023/06/16 08:07:43;;;;;;;19.88;15.10;;;486.80;2380.80;;;;;;4850443;29;20069;-75
2023/06/16 08:10:10;;;;;;;22.83;15.35;;;486.80;2380.80;;;;;;4850046;29;20030;-76
2023/06/16 08:12:35;;;;;;;16.08;12.65;;;486.90;2380.80;;;;;;4849617;29;20029;-75
2023/06/16 08:15:03;;;;;;;21.85;14.98;;;486.80;2380.80;;;;;;4854705;29;20050;-76
2023/06/16 08:17:29;;;;;;;18.25;13.32;;;486.60;2380.80;;;;;;4848346;29;20037;-76
2023/06/16 08:19:55;;;;;;;16.85;12.80;;;486.50;2380.80;;;;;;4847142;29;20030;-75
2023/06/16 08:22:20;;;;;;;17.20;13.63;;;486.60;2380.80;;;;;;4853571;29;20029;-74
2023/06/16 08:24:46;;;;;;;18.05;13.07;;;486.50;2380.80;;;;;;4854093;29;20029;-75
2023/06/16 08:27:12;;;;;;;15.75;11.82;;;486.50;2380.80;;;;;;4851635;29;20030;-75
2023/06/16 08:29:39;;;;;;;18.27;12.88;;;486.60;2380.80;;;;;;4850983;29;20030;-74
2023/06/16 08:32:06;;;;;;;17.17;12.48;;;486.80;2380.80;;;;;;4851461;29;20361;-79
2023/06/16 08:34:31;;;;;;;21.88;12.35;;;486.80;2201.60;;;;;;4850992;29;20029;-78
2023/06/16 08:36:58;;;;;;;20.38;13.52;;;486.80;2380.80;;;;;;4854977;29;20094;-76
2023/06/16 08:39:24;;;;;;;16.95;12.10;;;486.80;2380.80;;;;;;4849758;29;20047;-75
2023/06/16 08:41:51;;;;;;;19.83;12.75;;;487.00;2380.80;;;;;;4854560;29;20109;-76
2023/06/16 08:44:19;;;;;;;16.02;11.95;;;486.80;2380.80;;;;;;4854574;29;20133;-75
2023/06/16 08:46:45;;;;;;;15.52;12.75;;;486.90;2380.80;;;;;;4855153;29;20053;-74
2023/06/16 08:49:14;;;;;;;18.13;13.75;;;486.90;2380.80;;;;;;4851077;29;20839;-74
2023/06/16 08:51:47;;;;;;;14.13;11.30;;;487.00;2380.80;;;;;;4851339;29;20022;-74
2023/06/16 08:54:13;;;;;;;18.70;13.07;;;487.10;2380.80;;;;;;4857445;29;20033;-72
2023/06/16 08:56:42;;;;;;;18.50;13.15;;;487.00;2304.00;;;;;;4847131;29;20022;-72
2023/06/16 08:59:08;;;;;;;15.93;13.50;;;487.00;2380.80;;;;;;4851602;29;20030;-74
2023/06/16 09:01:34;;;;;;;19.27;13.25;;;487.00;2380.80;;;;;;4852803;29;20029;-76
2023/06/16 09:04:00;;;;;;;15.77;11.93;;;487.10;2380.80;;;;;;4856999;29;20034;-73
2023/06/16 09:06:26;;;;;;;19.67;14.73;;;487.10;2380.80;;;;;;4860382;29;20021;-73
2023/06/16 09:08:55;;;;;;;22.65;17.30;;;487.20;2380.80;;;;;;4854663;29;20042;-77
2023/06/16 09:11:25;;;;;;;24.55;18.33;;;487.20;2380.80;;;;;;4848098;29;20041;-73
2023/06/16 09:13:52;;;;;;;22.73;17.40;;;487.10;2099.20;;;;;;4847864;29;20026;-73
2023/06/16 09:16:21;;;;;;;25.15;15.07;;;487.10;2380.80;;;;;;4853953;29;20185;-72
2023/06/16 09:18:48;;;;;;;22.88;16.27;;;487.10;2380.80;;;;;;4851747;29;20041;-74
2023/06/16 09:21:22;;;;;;;21.50;15.82;;;487.10;2380.80;;;;;;4849274;29;20453;-75
2023/06/16 09:23:56;;;;;;;19.13;13.45;;;487.10;2380.80;;;;;;4859019;29;20073;-73
2023/06/16 09:26:24;;;;;;;18.65;14.32;;;487.00;2380.80;;;;;;4850321;29;20022;-73
2023/06/16 09:28:51;;;;;;;19.65;14.30;;;487.00;2380.80;;;;;;4859049;29;20026;-74
2023/06/16 09:31:18;;;;;;;18.48;13.35;;;487.00;2380.80;;;;;;4851505;29;20370;-74
2023/06/16 09:33:44;;;;;;;24.23;14.25;;;487.00;2380.80;;;;;;4849387;29;20033;-74
2023/06/16 09:36:10;;;;;;;21.77;14.23;;;487.00;2380.80;;;;;;4847046;29;20030;-76
2023/06/16 09:38:37;;;;;;;17.00;13.50;;;487.00;2380.80;;;;;;4853058;29;20042;-73
2023/06/16 09:41:16;;;;;;;19.83;14.05;;;487.00;2380.80;;;;;;4847539;29;20026;-74
2023/06/16 09:43:43;;;;;;;17.38;13.32;;;486.90;2380.80;;;;;;4847602;29;20033;-76
2023/06/16 09:46:13;;;;;;;20.27;13.90;;;486.90;2380.80;;;;;;4853042;29;20022;-76
2023/06/16 09:48:49;;;;;;;17.08;13.70;;;486.90;2380.80;;;;;;4845975;29;20026;-73
2023/06/16 09:51:22;;;;;;;16.83;12.75;;;486.80;2380.80;;;;;;4854026;29;20028;-73
2023/06/16 09:53:48;;;;;;;15.98;11.75;;;486.80;2380.80;;;;;;4851648;29;20477;-73
2023/06/16 09:56:15;;;;;;;18.25;12.20;;;486.90;2380.80;;;;;;4845969;29;20034;-73
2023/06/16 09:58:42;;;;;;;16.95;12.27;;;486.80;2380.80;;;;;;4854982;29;20065;-74
2023/06/16 10:01:15;;;;;;;18.10;14.05;;;486.80;2380.80;;;;;;4851899;29;20464;-73
2023/06/16 10:03:43;;;;;;;22.20;13.68;;;486.80;2380.80;;;;;;4852340;29;20038;-74
2023/06/16 10:06:19;;;;;;;16.75;13.32;;;486.80;2380.80;;;;;;4854025;29;20480;-73
2023/06/16 10:08:48;;;;;;;20.55;14.80;;;486.80;2380.80;;;;;;4853949;29;20061;-74
2023/06/16 10:11:18;;;;;;;21.77;14.50;;;486.80;2380.80;;;;;;4846360;29;20034;-74
2023/06/16 10:13:51;;;;;;;18.08;14.25;;;486.80;2380.80;;;;;;4853523;29;20504;-74
2023/06/16 10:16:20;;;;;;;19.77;14.07;;;486.90;2380.80;;;;;;4845988;29;20065;-73
2023/06/16 10:18:47;;;;;;;21.55;16.10;;;486.80;2380.80;;;;;;4852152;29;20489;-74
2023/06/16 10:21:15;;;;;;;21.75;15.15;;;486.80;2380.80;;;;;;4849659;29;20030;-77
2023/06/16 10:23:40;;;;;;;19.80;15.68;;;486.90;2380.80;;;;;;4848399;29;20457;-75
2023/06/16 10:26:07;;;;;;;22.08;15.40;;;487.00;2380.80;;;;;;4857190;29;20090;-75
2023/06/16 10:28:35;;;;;;;19.85;15.13;;;487.00;2380.80;;;;;;4851242;29;20021;-74
2023/06/16 10:31:03;;;;;;;20.42;15.00;;;487.00;2380.80;;;;;;4847445;29;20077;-74
2023/06/16 10:33:28;;;;;;;20.98;14.52;;;487.10;2380.80;;;;;;4847070;29;20377;-74
2023/06/16 10:36:01;;;;;;;19.17;11.52;;;487.10;2380.80;;;;;;4848438;29;20033;-74
2023/06/16 10:38:37;;;;;;;19.48;13.30;;;487.00;2380.80;;;;;;4849225;29;20507;-73
2023/06/16 10:41:03;;;;;;;21.83;13.02;;;487.10;2380.80;;;;;;4846480;29;20026;-75
2023/06/16 10:43:29;;;;;;;24.75;11.30;;;487.10;2380.80;;;;;;4848395;29;20067;-78
2023/06/16 10:46:14;;;;;;;16.13;11.63;;;487.00;2380.80;;;;;;4850208;29;20062;-73
2023/06/16 10:49:04;;;;;;;15.15;11.70;;;487.00;2380.80;;;;;;4844905;29;20397;-73
2023/06/16 10:51:50;;;;;;;16.00;12.05;;;487.10;2380.80;;;;;;4851322;29;20029;-73
2023/06/16 10:54:36;;;;;;;17.58;13.13;;;487.10;2380.80;;;;;;4849578;29;20100;-74
2023/06/16 10:57:06;;;;;;;16.42;12.80;;;487.10;2380.80;;;;;;4851059;29;20040;-74
2023/06/16 10:59:57;;;;;;;20.05;13.40;;;487.10;2380.80;;;;;;4853823;29;20384;-75
2023/06/16 11:02:31;;;;;;;17.00;13.57;;;487.10;2380.80;;;;;;4849592;29;20112;-78
2023/06/16 11:05:10;;;;;;;18.08;13.63;;;512.20;2380.80;;;;;;4848655;29;20052;-73
2023/06/16 11:07:43;;;;;;;21.50;14.02;;;487.10;2380.80;;;;;;4851098;29;20487;-73
2023/06/16 11:10:20;;;;;;;18.75;13.38;;;487.10;2380.80;;;;;;4849545;29;20472;-72
2023/06/16 11:12:46;;;;;;;18.40;13.43;;;487.10;2380.80;;;;;;4851045;29;20088;-72
2023/06/16 11:15:14;;;;;;;16.95;13.00;;;487.30;2380.80;;;;;;4847260;29;20152;-74
2023/06/16 11:17:43;;;;;;;16.88;12.93;;;487.30;2380.80;;;;;;4846877;29;20041;-72
2023/06/16 11:20:11;;;;;;;16.63;13.88;;;487.30;2380.80;;;;;;4845016;29;20096;-77
2023/06/16 11:22:37;;;;;;;18.90;12.85;;;487.30;2380.80;;;;;;4850940;29;20034;-74
2023/06/16 11:25:03;;;;;;;18.38;13.85;;;512.00;2380.80;;;;;;4850576;29;20497;-77
2023/06/16 11:27:30;;;;;;;17.42;13.48;;;512.20;2380.80;;;;;;4847503;29;20038;-73
2023/06/16 11:29:57;;;;;;;17.17;13.18;;;512.30;2380.80;;;;;;4849793;29;20044;-75
2023/06/16 11:32:28;;;;;;;14.75;12.05;;;512.30;2380.80;;;;;;4847471;29;20025;-74
2023/06/16 11:34:55;;;;;;;17.60;12.15;;;512.30;2380.80;;;;;;4850228;29;20128;-74
2023/06/16 11:37:22;;;;;;;15.32;11.75;;;512.20;2380.80;;;;;;4845691;29;20561;-76
2023/06/16 11:39:47;;;;;;;15.32;10.20;;;512.20;2380.80;;;;;;4847961;29;20038;-75
2023/06/16 11:42:16;;;;;;;13.23;9.57;;;512.20;2380.80;;;;;;4844470;29;20030;-74
2023/06/16 11:44:43;;;;;;;14.15;9.10;;;512.20;2380.80;;;;;;4833732;29;20099;-74
2023/06/16 11:47:09;;;;;;;14.18;8.98;;;512.20;2380.80;;;;;;4844522;29;20090;-74
2023/06/16 11:49:36;;;;;;;15.98;9.52;;;512.20;2380.80;;;;;;4852345;29;20353;-75
2023/06/16 11:52:06;;;;;;;14.13;8.00;;;512.30;2380.80;;;;;;4844432;29;20672;-73
2023/06/16 11:54:35;;;;;;;11.43;7.22;;;512.30;2380.80;;;;;;4848552;29;20034;-74
2023/06/16 11:57:02;;;;;;;9.43;7.05;;;512.30;2380.80;;;;;;4848671;29;20029;-74
2023/06/16 11:59:30;;;;;;;11.05;7.32;;;512.20;2380.80;;;;;;4848218;29;20034;-75
2023/06/16 12:01:57;;;;;;;10.50;6.95;;;512.20;2380.80;;;;;;4848440;29;20027;-74
2023/06/16 12:04:27;;;;;;;13.52;6.53;;;512.20;2380.80;;;;;;4844155;29;20050;-73